الصفحة الرئيسية
METAR-TAF:

METAR-TAF

مطار :

مطار كانجرلوسواك

Kangerlussuaq, جرينلاند

دائرة عرض: 67-01N, خط طول: 050-42W, ارتفاع: 50 متر

مراقبة الطقس الحالي

تاريخ ووقت الإصدار 46 دقيقة قبل الساعة 10:50UTC
ريح 9 عقدة من الغرب/الجنوب الغربي
درجة الحرارة 1°درجة مئوية
الرطوبة 75%
ضغط 1008 hPa
الرؤية 10 كم أو أكثر

METAR: BGSF 241050Z AUTO 25009KT 9999NDV SCT018/// BKN036/// 01/M03 Q1008

زمن: 09:36 (11:36 UTC)

توقعات

تاريخ ووقت الإصدار 48 دقيقة قبل الساعة 10:48UTC
التوقعات صالحة من24 الساعة 12 UTC إلى 25 الساعة 18 UTC
ريح 10 عقدة من الغرب
الرؤية 10 كم أو أكثر
غيوم قليلة على ارتفاع 1200 قدم
غيوم مفككة على ارتفاع 4000 قدم
مؤقت
من 24 الساعة 12 UTC إلى 25 الساعة 07 UTC
الرؤية: 3000 متر
غيوم مفككة على ارتفاع 1200 قدم
ثلوج خفيفة, مطر
أصبح
من 25 الساعة 04 UTC إلى 25 الساعة 07 UTC
ريح 8 عقدة من الشرق
مؤقت
من 25 الساعة 07 UTC إلى 25 الساعة 18 UTC
غيوم متفرقة على ارتفاع 4000 قدم

TAF: BGSF 241048Z 2412/2518 26010KT 9999 FEW012 BKN040 TEMPO 2412/2507 3000 -SNRA BKN012 BECMG 2504/2507 08008KT TEMPO 2507/2518 SCT040

أرصاد الطقس والتوقعات من أكثر من 4000 مطار (تقارير الطقس للمطار METAR والتنبؤ بالطقس بالمطارTAF).

المحطات المتاحة هي النقط الصفراء والحمراء على الخريطة.

حرك المؤشر فوق النقطة لمعرفة اسم المحطة.

ثم انقر لمعرفة أرصاد وتوقعات الطقس.

لتغيير الخارطة: اضغط على الأزرار الخضراء مع رمز الصليب الأسود للتكبير. على الزر الأخضر مع شرطة للتصغير، أو على الأسهم الخضراء للخرائط المجاورة.


METAR-TAF: